Time;durP1;ratioP1;P1;durP2;ratioP2;P2;SDS_P1;SDS_P2;PMS_P1;PMS_P2;Temp;Humidity;BMP_temperature;BMP_pressure;BME280_temperature;BME280_humidity;BME280_pressure;Samples;Min_cycle;Max_cycle;Signal;HPM_P1;HPM_P2
2022/01/17 00:02:25;;;;;;;7.33;3.93;;;15.90;58.80;;;;;;5005355;28;20492;-80
2022/01/17 00:04:53;;;;;;;10.47;4.00;;;15.90;58.80;;;;;;5005510;28;20975;-80
2022/01/17 00:07:21;;;;;;;6.50;4.00;;;15.90;58.70;;;;;;5005082;28;20465;-81
2022/01/17 00:09:49;;;;;;;4.60;3.60;;;15.90;58.80;;;;;;5007173;28;20489;-80
2022/01/17 00:12:18;;;;;;;11.80;4.87;;;15.90;58.80;;;;;;5002779;28;20480;-80
2022/01/17 00:14:46;;;;;;;5.63;3.67;;;15.90;58.80;;;;;;5004282;28;20464;-80
2022/01/17 00:17:29;;;;;;;5.57;3.77;;;15.90;58.80;;;;;;5005419;28;20430;-80
2022/01/17 00:20:07;;;;;;;10.57;4.13;;;15.90;58.90;;;;;;5006097;28;20459;-80
2022/01/17 00:22:34;;;;;;;6.27;3.97;;;15.90;58.90;;;;;;5004059;28;20569;-80
2022/01/17 00:25:02;;;;;;;10.00;3.83;;;15.90;58.80;;;;;;5003277;28;20448;-80
2022/01/17 00:27:32;;;;;;;8.90;3.70;;;15.90;58.80;;;;;;5002968;28;20477;-80
2022/01/17 00:30:02;;;;;;;7.60;4.23;;;15.90;58.80;;;;;;5000858;28;20532;-80
2022/01/17 00:32:31;;;;;;;8.70;4.07;;;15.80;58.70;;;;;;5001344;28;20528;-80
2022/01/17 00:34:59;;;;;;;8.57;3.97;;;15.80;58.80;;;;;;5004463;28;20445;-81
2022/01/17 00:37:27;;;;;;;4.97;3.37;;;15.80;58.80;;;;;;5002437;28;20433;-80
2022/01/17 00:39:55;;;;;;;8.70;3.37;;;15.80;58.90;;;;;;5003034;28;20488;-81
2022/01/17 00:42:23;;;;;;;8.90;3.73;;;15.90;58.90;;;;;;5005014;28;20472;-80
2022/01/17 00:44:53;;;;;;;10.93;3.87;;;15.90;58.80;;;;;;5004600;28;20430;-80
2022/01/17 00:47:20;;;;;;;7.07;3.70;;;15.90;58.80;;;;;;5004172;28;20476;-80
2022/01/17 00:49:49;;;;;;;7.90;3.60;;;15.90;58.70;;;;;;5004354;28;20444;-80
2022/01/17 00:52:16;;;;;;;4.37;3.47;;;15.80;58.80;;;;;;5004770;28;20457;-80
2022/01/17 00:54:45;;;;;;;5.73;3.80;;;15.80;58.80;;;;;;5007554;28;20426;-80
2022/01/17 00:57:13;;;;;;;3.80;3.20;;;15.90;58.80;;;;;;5003315;28;20429;-80
2022/01/17 00:59:41;;;;;;;5.03;3.13;;;15.90;58.70;;;;;;5008427;28;20497;-80
2022/01/17 01:02:10;;;;;;;9.13;3.57;;;15.90;58.70;;;;;;5006970;28;20500;-80
2022/01/17 01:04:39;;;;;;;10.60;4.00;;;15.80;58.70;;;;;;5007850;28;20438;-80
2022/01/17 01:07:06;;;;;;;5.97;3.83;;;15.80;58.80;;;;;;5007379;28;20429;-80
2022/01/17 01:09:42;;;;;;;6.80;3.50;;;15.90;58.70;;;;;;5007502;28;20457;-80
2022/01/17 01:12:10;;;;;;;3.77;3.13;;;15.90;58.80;;;;;;5007664;28;20417;-80
2022/01/17 01:14:41;;;;;;;5.37;3.10;;;15.80;58.70;;;;;;5007338;28;20476;-80
2022/01/17 01:17:29;;;;;;;7.07;3.30;;;15.80;58.70;;;;;;5007194;28;20532;-80
2022/01/17 01:20:06;;;;;;;6.53;4.10;;;15.80;58.70;;;;;;5003007;28;20465;-80
2022/01/17 01:28:06;;;;;;;6.30;3.30;;;15.80;58.60;;;;;;5004693;28;20425;-80
2022/01/17 01:30:39;;;;;;;5.77;3.33;;;15.80;58.60;;;;;;5007153;28;20456;-80
2022/01/17 01:33:08;;;;;;;6.70;3.37;;;15.80;58.80;;;;;;5008980;28;20425;-80
2022/01/17 01:35:44;;;;;;;7.03;3.33;;;15.80;58.70;;;;;;5005380;28;20429;-80
2022/01/17 01:38:12;;;;;;;7.40;3.60;;;15.80;58.80;;;;;;5007717;28;20453;-80
2022/01/17 01:40:40;;;;;;;7.50;3.60;;;15.80;58.70;;;;;;5008287;28;20468;-80
2022/01/17 01:43:09;;;;;;;8.03;2.93;;;15.80;58.70;;;;;;5006013;28;20541;-81
2022/01/17 01:45:37;;;;;;;6.80;3.73;;;15.80;58.60;;;;;;5005217;28;20473;-80
2022/01/17 01:48:08;;;;;;;4.30;3.00;;;15.80;58.80;;;;;;5007845;28;20506;-80
2022/01/17 01:50:37;;;;;;;4.10;3.17;;;15.80;58.70;;;;;;5007952;28;20488;-80
2022/01/17 01:53:06;;;;;;;7.30;3.40;;;15.80;58.60;;;;;;5008689;28;20429;-80
2022/01/17 01:55:34;;;;;;;5.50;3.63;;;15.80;58.70;;;;;;5005871;28;20492;-80
2022/01/17 01:58:02;;;;;;;8.33;3.40;;;15.80;59.20;;;;;;5007947;28;20517;-80
2022/01/17 02:00:30;;;;;;;7.93;3.17;;;15.80;58.50;;;;;;5009283;28;20483;-80
2022/01/17 02:02:58;;;;;;;5.13;3.50;;;15.80;58.60;;;;;;5006252;28;20469;-80
2022/01/17 02:05:26;;;;;;;5.10;3.20;;;15.80;58.50;;;;;;5002919;28;20552;-80
2022/01/17 02:07:55;;;;;;;6.20;2.90;;;15.80;58.50;;;;;;5007232;28;20516;-80
2022/01/17 02:10:23;;;;;;;7.67;3.00;;;15.80;58.60;;;;;;5007280;28;20472;-80
2022/01/17 02:12:51;;;;;;;5.63;2.83;;;15.80;58.50;;;;;;5002856;28;20489;-80
2022/01/17 02:15:19;;;;;;;12.73;4.00;;;15.80;58.50;;;;;;5008814;28;20485;-80
2022/01/17 02:17:54;;;;;;;3.83;2.70;;;15.80;58.50;;;;;;5007614;28;20504;-80
2022/01/17 02:20:24;;;;;;;5.10;3.03;;;15.80;58.40;;;;;;5007392;28;20461;-81
2022/01/17 02:22:52;;;;;;;8.50;3.30;;;15.70;58.30;;;;;;5003898;28;20477;-80
2022/01/17 02:25:20;;;;;;;6.73;3.33;;;15.70;58.30;;;;;;5007190;28;20504;-80
2022/01/17 02:27:49;;;;;;;6.30;2.97;;;15.80;58.40;;;;;;5007702;28;20505;-80
2022/01/17 02:30:22;;;;;;;8.60;3.17;;;15.70;58.20;;;;;;5008428;28;20492;-80
2022/01/17 02:32:49;;;;;;;6.50;3.50;;;15.70;58.30;;;;;;5007299;28;20445;-80
2022/01/17 02:35:18;;;;;;;8.70;3.00;;;15.70;58.40;;;;;;5007340;28;20460;-80
2022/01/17 02:37:47;;;;;;;5.53;3.03;;;15.70;58.40;;;;;;5007406;28;20435;-80
2022/01/17 02:40:16;;;;;;;6.83;3.43;;;15.70;58.30;;;;;;5005468;28;20548;-80
2022/01/17 02:42:46;;;;;;;8.80;3.20;;;15.70;58.40;;;;;;4999762;28;20467;-80
2022/01/17 02:45:32;;;;;;;6.90;3.10;;;15.70;58.30;;;;;;5006986;28;20458;-80
2022/01/17 02:48:00;;;;;;;7.30;2.80;;;15.70;58.30;;;;;;5007694;28;20434;-80
2022/01/17 02:50:28;;;;;;;6.90;3.67;;;15.70;58.30;;;;;;5006510;28;20492;-80
2022/01/17 02:52:59;;;;;;;9.77;3.50;;;15.70;58.40;;;;;;5006950;28;20518;-80
2022/01/17 02:55:28;;;;;;;6.57;2.73;;;15.70;58.20;;;;;;5005040;28;20529;-80
2022/01/17 02:57:55;;;;;;;5.90;3.07;;;15.70;58.30;;;;;;5006431;28;20480;-80
2022/01/17 03:00:24;;;;;;;5.77;3.13;;;15.70;58.30;;;;;;5007614;28;20464;-80
2022/01/17 03:02:52;;;;;;;8.33;3.20;;;15.70;58.20;;;;;;5006402;28;20528;-80
2022/01/17 03:05:20;;;;;;;4.70;2.70;;;15.70;58.20;;;;;;5006379;28;20449;-80
2022/01/17 03:07:49;;;;;;;4.93;2.67;;;15.70;58.30;;;;;;5006659;28;20518;-80
2022/01/17 03:10:28;;;;;;;4.30;2.80;;;15.70;58.20;;;;;;5005934;28;20469;-80
2022/01/17 03:13:02;;;;;;;7.00;2.77;;;15.70;58.20;;;;;;5002487;28;20548;-80
2022/01/17 03:15:30;;;;;;;8.63;2.93;;;15.70;58.20;;;;;;5006916;28;20458;-80
2022/01/17 03:17:58;;;;;;;7.60;3.47;;;15.80;58.20;;;;;;5008935;28;20995;-80
2022/01/17 03:20:26;;;;;;;5.83;2.60;;;15.70;58.20;;;;;;5006894;28;20533;-81
2022/01/17 03:22:53;;;;;;;8.97;2.97;;;15.70;58.80;;;;;;5007551;28;20545;-79
2022/01/17 03:25:23;;;;;;;6.40;2.90;;;15.70;58.80;;;;;;5007407;28;20473;-80
2022/01/17 03:27:51;;;;;;;6.77;2.90;;;15.70;58.20;;;;;;5007115;28;20504;-80
2022/01/17 03:30:19;;;;;;;5.60;2.93;;;15.70;58.20;;;;;;5000584;28;20555;-80
2022/01/17 03:32:47;;;;;;;5.47;2.33;;;15.70;58.20;;;;;;5006122;28;20437;-80
2022/01/17 03:35:15;;;;;;;7.17;3.20;;;15.70;58.20;;;;;;5000517;28;20452;-80
2022/01/17 03:37:44;;;;;;;4.90;2.90;;;15.80;58.20;;;;;;4997655;28;20498;-80
2022/01/17 03:40:13;;;;;;;6.60;2.47;;;15.70;58.10;;;;;;5000742;28;20477;-80
2022/01/17 03:42:42;;;;;;;5.70;2.50;;;15.70;58.20;;;;;;5005810;28;20434;-80
2022/01/17 03:45:11;;;;;;;10.17;3.30;;;15.70;58.20;;;;;;4998736;28;20531;-80
2022/01/17 03:47:40;;;;;;;5.23;3.03;;;15.70;58.30;;;;;;5004543;28;20484;-80
2022/01/17 03:50:10;;;;;;;5.50;2.80;;;15.70;58.10;;;;;;4999846;28;20504;-80
2022/01/17 03:52:39;;;;;;;8.00;3.23;;;15.70;58.30;;;;;;5000728;28;20525;-80
2022/01/17 03:55:08;;;;;;;4.90;2.40;;;15.70;58.10;;;;;;4999934;28;20512;-80
2022/01/17 03:57:36;;;;;;;3.97;3.03;;;15.70;58.20;;;;;;5002181;28;20520;-80
2022/01/17 04:00:07;;;;;;;6.97;2.90;;;15.70;58.20;;;;;;5003705;28;20501;-80
2022/01/17 04:02:35;;;;;;;8.23;2.77;;;15.70;58.20;;;;;;5003588;28;20437;-81
2022/01/17 04:05:03;;;;;;;6.63;2.70;;;15.70;58.20;;;;;;5002451;28;20485;-80
2022/01/17 04:07:31;;;;;;;5.27;2.90;;;15.70;58.10;;;;;;5006055;28;20552;-80
2022/01/17 04:09:59;;;;;;;6.10;2.20;;;15.70;58.70;;;;;;5005278;28;20465;-80
2022/01/17 04:12:27;;;;;;;4.40;2.50;;;15.70;58.00;;;;;;5002124;28;20472;-80
2022/01/17 04:14:56;;;;;;;4.63;2.53;;;15.70;58.10;;;;;;5002669;28;20536;-80
2022/01/17 04:17:28;;;;;;;4.93;2.70;;;15.70;58.10;;;;;;5004809;28;20508;-80
2022/01/17 04:20:03;;;;;;;16.03;2.90;;;15.70;58.10;;;;;;5002746;28;20521;-80
2022/01/17 04:22:34;;;;;;;4.23;2.40;;;15.70;58.00;;;;;;5004843;28;20818;-79
2022/01/17 04:25:02;;;;;;;7.40;2.40;;;15.70;58.00;;;;;;5006425;28;20533;-80
2022/01/17 04:27:29;;;;;;;6.20;2.70;;;15.70;58.10;;;;;;5006191;28;20449;-80
2022/01/17 04:29:57;;;;;;;4.50;2.53;;;15.70;58.10;;;;;;5005765;28;20461;-80
2022/01/17 04:32:26;;;;;;;6.37;3.03;;;15.70;58.10;;;;;;5005840;28;20472;-80
2022/01/17 04:34:54;;;;;;;3.80;2.10;;;15.70;58.10;;;;;;5005983;28;20498;-80
2022/01/17 04:37:22;;;;;;;5.07;2.43;;;15.70;58.00;;;;;;5005068;28;20453;-80
2022/01/17 04:39:50;;;;;;;5.33;2.33;;;15.70;58.00;;;;;;5006780;28;20465;-79
2022/01/17 04:42:25;;;;;;;6.13;2.77;;;15.70;58.00;;;;;;5007134;28;20449;-79
2022/01/17 04:45:11;;;;;;;12.07;3.10;;;15.70;57.90;;;;;;5004887;28;20536;-80
2022/01/17 04:47:40;;;;;;;6.97;2.60;;;15.70;57.90;;;;;;5003107;28;20572;-80
2022/01/17 04:50:10;;;;;;;10.60;2.47;;;15.70;57.90;;;;;;5002872;28;20485;-80
2022/01/17 04:52:39;;;;;;;6.70;2.80;;;15.70;57.90;;;;;;5001372;28;20465;-80
2022/01/17 04:55:09;;;;;;;6.30;2.40;;;15.70;58.00;;;;;;5003128;28;20536;-80
2022/01/17 04:57:37;;;;;;;5.97;2.63;;;15.70;58.00;;;;;;5004105;28;20461;-80
2022/01/17 05:00:06;;;;;;;5.87;2.40;;;15.70;58.00;;;;;;5005791;28;20492;-80
2022/01/17 05:02:34;;;;;;;7.70;2.47;;;15.70;58.00;;;;;;4999220;28;20472;-79
2022/01/17 05:05:04;;;;;;;4.57;2.47;;;15.70;58.00;;;;;;5004049;28;20495;-80
2022/01/17 05:07:33;;;;;;;5.43;2.50;;;15.70;57.80;;;;;;5008716;28;20461;-80
2022/01/17 05:10:01;;;;;;;5.30;2.27;;;15.70;58.00;;;;;;5000504;28;20556;-80
2022/01/17 05:12:29;;;;;;;9.07;2.47;;;15.70;57.90;;;;;;5005753;28;20468;-80
2022/01/17 05:14:58;;;;;;;6.80;2.63;;;15.70;57.90;;;;;;5005532;28;20477;-80
2022/01/17 05:17:44;;;;;;;4.30;2.40;;;15.70;58.00;;;;;;5006186;28;20444;-80
2022/01/17 05:20:14;;;;;;;8.13;3.10;;;15.70;57.80;;;;;;5006864;28;20461;-80
2022/01/17 05:22:42;;;;;;;3.97;2.37;;;15.70;57.90;;;;;;5005854;28;20430;-80
2022/01/17 05:25:11;;;;;;;4.63;2.57;;;15.70;58.00;;;;;;5004753;28;20475;-80
2022/01/17 05:27:39;;;;;;;6.40;2.70;;;15.70;57.90;;;;;;5003204;28;20549;-79
2022/01/17 05:30:09;;;;;;;2.53;1.97;;;15.70;57.90;;;;;;5005329;28;20460;-79
2022/01/17 05:32:37;;;;;;;4.63;2.07;;;15.70;57.90;;;;;;5005161;28;20464;-79
2022/01/17 05:35:06;;;;;;;5.67;2.30;;;15.70;57.90;;;;;;5004185;28;20461;-79
2022/01/17 05:37:35;;;;;;;7.43;2.57;;;15.70;58.00;;;;;;5004454;28;20480;-79
2022/01/17 05:40:03;;;;;;;4.37;2.40;;;15.70;57.90;;;;;;5003905;28;20519;-80
2022/01/17 05:42:32;;;;;;;8.43;2.80;;;15.70;57.90;;;;;;5005457;28;20518;-80
2022/01/17 05:44:59;;;;;;;3.80;2.30;;;15.70;58.00;;;;;;5007491;28;20511;-79
2022/01/17 05:47:27;;;;;;;5.50;2.30;;;15.70;57.90;;;;;;5008805;28;20540;-79
2022/01/17 05:49:55;;;;;;;9.90;2.80;;;15.70;57.80;;;;;;5007677;28;20541;-79
2022/01/17 05:52:23;;;;;;;7.60;2.40;;;15.70;58.00;;;;;;5007399;28;20497;-79
2022/01/17 05:54:52;;;;;;;8.73;2.83;;;15.80;57.90;;;;;;5006536;28;20443;-79
2022/01/17 05:57:20;;;;;;;4.20;2.43;;;15.80;58.00;;;;;;5005641;28;20445;-79
2022/01/17 05:59:48;;;;;;;6.97;2.30;;;15.80;58.00;;;;;;5005332;28;20509;-79
2022/01/17 06:02:16;;;;;;;7.40;2.60;;;15.80;57.90;;;;;;5005561;28;20521;-79
2022/01/17 06:04:44;;;;;;;7.93;2.30;;;15.80;57.90;;;;;;5008932;28;20473;-79
2022/01/17 06:07:13;;;;;;;6.67;2.63;;;15.80;57.80;;;;;;5007647;28;20960;-79
2022/01/17 06:09:40;;;;;;;6.53;2.50;;;15.80;57.80;;;;;;5006493;28;20469;-79
2022/01/17 06:12:11;;;;;;;4.00;2.23;;;15.80;57.80;;;;;;5006299;28;20449;-79
2022/01/17 06:14:39;;;;;;;6.80;2.80;;;15.80;57.90;;;;;;5006898;28;20478;-79
2022/01/17 06:17:08;;;;;;;5.27;2.53;;;15.80;57.90;;;;;;5004789;28;20537;-79
2022/01/17 06:19:35;;;;;;;5.70;2.07;;;15.80;57.80;;;;;;5006946;28;20488;-79
2022/01/17 06:22:04;;;;;;;6.27;2.20;;;15.70;57.80;;;;;;5005727;28;20548;-79
2022/01/17 06:24:33;;;;;;;6.73;2.70;;;15.70;57.90;;;;;;5005725;28;20533;-79
2022/01/17 06:27:02;;;;;;;4.17;2.23;;;15.80;57.90;;;;;;5005872;28;20565;-79
2022/01/17 06:29:31;;;;;;;6.00;2.60;;;15.70;57.90;;;;;;5006114;28;20532;-79
2022/01/17 06:31:59;;;;;;;5.00;2.57;;;15.80;58.00;;;;;;5004671;28;20515;-79
2022/01/17 06:34:48;;;;;;;5.70;2.20;;;15.80;58.00;;;;;;5006367;28;20529;-79
2022/01/17 06:37:16;;;;;;;4.70;2.40;;;15.80;58.00;;;;;;5006758;28;20517;-79
2022/01/17 06:39:45;;;;;;;8.80;2.87;;;15.80;58.00;;;;;;5006052;28;20545;-79
2022/01/17 06:42:13;;;;;;;3.10;1.80;;;15.80;58.00;;;;;;5005705;28;20465;-79
2022/01/17 06:44:42;;;;;;;5.97;2.60;;;15.80;57.90;;;;;;5005909;28;20468;-79
2022/01/17 06:47:10;;;;;;;5.93;2.00;;;15.80;58.20;;;;;;5005845;28;20524;-79
2022/01/17 06:49:38;;;;;;;4.77;2.20;;;15.80;57.90;;;;;;5003617;28;20505;-79
2022/01/17 06:52:07;;;;;;;9.97;2.97;;;15.80;58.00;;;;;;5005707;28;20468;-79
2022/01/17 06:54:35;;;;;;;5.20;2.70;;;15.80;58.00;;;;;;5005703;28;20513;-79
2022/01/17 06:57:03;;;;;;;3.30;2.03;;;15.80;57.90;;;;;;5006144;28;20461;-79
2022/01/17 06:59:31;;;;;;;7.40;2.50;;;15.80;58.10;;;;;;5005093;28;20477;-79
2022/01/17 07:02:01;;;;;;;5.53;2.83;;;15.80;57.90;;;;;;5004906;28;20461;-80
2022/01/17 07:04:29;;;;;;;5.00;2.27;;;15.80;58.10;;;;;;5005671;28;20469;-80
2022/01/17 07:06:57;;;;;;;6.00;2.40;;;15.80;58.00;;;;;;5001097;28;20506;-80
2022/01/17 07:09:24;;;;;;;8.63;2.00;;;15.80;58.00;;;;;;5005430;28;20872;-80
2022/01/17 07:11:52;;;;;;;7.63;3.00;;;15.80;57.90;;;;;;5005043;28;20434;-80
2022/01/17 07:14:20;;;;;;;6.63;2.20;;;15.80;57.90;;;;;;5004546;28;20437;-80
2022/01/17 07:16:48;;;;;;;6.70;2.73;;;15.80;58.00;;;;;;5004495;28;20469;-80
2022/01/17 07:19:17;;;;;;;4.13;2.40;;;15.80;58.00;;;;;;5004736;28;20449;-80
2022/01/17 07:21:45;;;;;;;5.73;2.37;;;15.80;58.10;;;;;;5003779;28;20488;-80
2022/01/17 07:24:34;;;;;;;4.33;2.67;;;15.80;58.10;;;;;;5001940;28;20444;-80
2022/01/17 07:27:02;;;;;;;5.13;2.40;;;15.80;58.00;;;;;;5002609;28;20505;-80
2022/01/17 07:29:30;;;;;;;5.97;2.37;;;15.80;58.20;;;;;;5002843;28;20465;-80
2022/01/17 07:31:58;;;;;;;6.77;2.30;;;15.80;58.20;;;;;;5002682;28;20433;-79
2022/01/17 07:34:27;;;;;;;5.10;2.37;;;15.80;58.00;;;;;;5003067;28;20469;-80
2022/01/17 07:36:55;;;;;;;4.03;2.33;;;15.80;58.10;;;;;;5003012;28;20433;-80
2022/01/17 07:39:23;;;;;;;6.63;2.40;;;15.80;58.20;;;;;;5000198;28;20485;-80
2022/01/17 07:41:51;;;;;;;4.93;2.50;;;15.80;58.10;;;;;;5003100;28;20480;-80
2022/01/17 07:44:20;;;;;;;7.10;2.67;;;15.80;58.00;;;;;;5003706;28;20477;-80
2022/01/17 07:46:50;;;;;;;5.83;2.37;;;15.80;58.70;;;;;;5003586;28;20493;-80
2022/01/17 07:49:20;;;;;;;5.57;2.40;;;15.80;58.10;;;;;;5002356;28;20453;-79
2022/01/17 07:51:50;;;;;;;3.80;2.07;;;15.80;58.20;;;;;;5002986;28;20434;-79
2022/01/17 07:54:18;;;;;;;5.60;2.80;;;15.80;58.30;;;;;;5004008;28;20441;-80
2022/01/17 07:56:46;;;;;;;7.00;2.30;;;15.80;58.30;;;;;;5002657;28;20540;-80
2022/01/17 07:59:15;;;;;;;7.03;2.10;;;15.80;58.10;;;;;;5003929;28;20524;-80
2022/01/17 08:01:43;;;;;;;5.80;2.13;;;15.80;58.20;;;;;;5003852;28;20453;-80
2022/01/17 08:04:11;;;;;;;6.97;2.53;;;15.80;58.20;;;;;;5002472;28;20968;-80
2022/01/17 08:06:39;;;;;;;7.53;2.40;;;15.90;58.20;;;;;;5003913;28;20469;-80
2022/01/17 08:09:11;;;;;;;5.93;2.60;;;15.90;58.40;;;;;;5003059;28;20476;-80
2022/01/17 08:12:00;;;;;;;9.03;2.60;;;15.90;58.20;;;;;;5001791;28;20437;-80
2022/01/17 08:14:28;;;;;;;9.30;3.00;;;15.90;58.20;;;;;;5000017;28;20488;-79
2022/01/17 08:16:56;;;;;;;6.40;2.17;;;15.90;58.10;;;;;;5002491;28;20469;-80
2022/01/17 08:19:25;;;;;;;4.43;2.20;;;15.90;58.20;;;;;;5003190;28;20451;-80
2022/01/17 08:21:58;;;;;;;5.83;2.50;;;15.90;58.20;;;;;;5003310;28;20465;-79
2022/01/17 08:24:28;;;;;;;4.40;2.37;;;16.00;58.40;;;;;;5002711;28;20437;-80
2022/01/17 08:26:56;;;;;;;6.43;2.40;;;15.90;58.10;;;;;;5003394;28;20886;-80
2022/01/17 08:29:25;;;;;;;5.07;2.50;;;16.00;58.30;;;;;;5002427;28;20481;-80
2022/01/17 08:31:53;;;;;;;5.27;1.93;;;16.00;58.30;;;;;;4997792;28;20540;-80
2022/01/17 08:34:21;;;;;;;3.77;2.10;;;16.00;58.20;;;;;;5001859;28;20434;-80
2022/01/17 08:36:50;;;;;;;5.20;2.30;;;16.00;58.20;;;;;;5001254;28;20472;-80
2022/01/17 08:39:18;;;;;;;6.57;2.20;;;16.00;58.20;;;;;;5002439;28;20456;-80
2022/01/17 08:41:47;;;;;;;5.20;2.30;;;16.00;58.30;;;;;;5002183;28;20480;-80
2022/01/17 08:44:15;;;;;;;7.67;2.60;;;16.10;58.30;;;;;;5000254;28;20509;-80
2022/01/17 08:46:44;;;;;;;4.97;2.50;;;16.00;58.20;;;;;;5000636;28;20798;-81
2022/01/17 08:49:12;;;;;;;6.67;2.50;;;16.10;58.30;;;;;;4999055;28;20959;-80
2022/01/17 08:51:45;;;;;;;8.60;2.83;;;16.10;58.20;;;;;;4999905;28;20441;-80
2022/01/17 08:54:13;;;;;;;5.73;2.30;;;16.10;58.30;;;;;;4999283;28;20469;-80
2022/01/17 08:56:40;;;;;;;5.33;2.43;;;16.10;58.00;;;;;;5002863;28;20456;-80
2022/01/17 08:59:10;;;;;;;6.47;2.43;;;16.10;58.20;;;;;;5002914;28;20469;-80
2022/01/17 09:01:38;;;;;;;9.60;3.00;;;16.10;58.00;;;;;;5001864;28;20442;-80
2022/01/17 09:04:06;;;;;;;10.20;2.60;;;16.10;58.20;;;;;;5002390;28;20458;-80
2022/01/17 09:06:34;;;;;;;5.80;2.60;;;16.20;58.20;;;;;;5002926;28;20497;-80
2022/01/17 09:09:02;;;;;;;5.10;2.33;;;16.20;58.00;;;;;;5000430;28;20468;-80
2022/01/17 09:11:30;;;;;;;5.70;2.37;;;16.20;58.10;;;;;;5001596;28;20453;-80
2022/01/17 09:13:58;;;;;;;6.70;2.63;;;16.20;58.10;;;;;;5002094;28;20453;-80
2022/01/17 09:16:28;;;;;;;6.33;2.20;;;16.30;58.00;;;;;;5003401;28;20473;-80
2022/01/17 09:18:56;;;;;;;5.90;2.60;;;16.30;58.10;;;;;;5005450;28;20925;-80
2022/01/17 09:21:24;;;;;;;5.63;2.10;;;16.30;58.10;;;;;;5003740;28;20500;-80
2022/01/17 09:23:54;;;;;;;6.87;3.07;;;16.30;58.10;;;;;;5001435;28;20453;-79
2022/01/17 09:26:23;;;;;;;8.90;3.13;;;16.30;58.20;;;;;;5001895;28;20480;-80
2022/01/17 09:28:51;;;;;;;5.60;2.27;;;16.30;58.00;;;;;;5001513;28;20441;-79
2022/01/17 09:31:19;;;;;;;6.87;2.80;;;16.30;58.00;;;;;;5003141;28;20464;-80
2022/01/17 09:33:48;;;;;;;6.87;2.73;;;16.40;58.30;;;;;;5005023;28;20441;-79
2022/01/17 09:36:16;;;;;;;7.87;2.90;;;16.40;58.20;;;;;;5004877;28;20457;-79
2022/01/17 09:38:44;;;;;;;8.87;2.97;;;16.40;58.00;;;;;;5002766;28;20481;-79
2022/01/17 09:41:12;;;;;;;8.60;2.63;;;16.40;58.10;;;;;;5003371;28;20564;-79
2022/01/17 09:43:48;;;;;;;8.07;2.70;;;16.50;58.00;;;;;;5004177;28;20460;-80
2022/01/17 09:46:18;;;;;;;8.00;2.97;;;16.50;58.10;;;;;;5004066;28;20425;-80
2022/01/17 09:48:49;;;;;;;6.23;2.70;;;16.50;58.10;;;;;;5006097;28;20476;-81
2022/01/17 09:51:30;;;;;;;7.63;3.00;;;16.50;58.10;;;;;;5009798;28;20484;-81
2022/01/17 09:53:58;;;;;;;9.20;3.20;;;16.50;58.10;;;;;;5004453;28;20496;-81
2022/01/17 09:56:27;;;;;;;10.30;2.77;;;16.50;58.20;;;;;;5008772;28;20476;-82
2022/01/17 09:58:56;;;;;;;8.57;2.90;;;16.50;58.20;;;;;;5007460;28;20425;-80
2022/01/17 10:01:25;;;;;;;10.40;2.80;;;16.60;58.20;;;;;;5008502;28;20483;-82
2022/01/17 10:03:56;;;;;;;10.33;3.03;;;16.60;58.20;;;;;;5011424;28;20441;-82
2022/01/17 10:06:25;;;;;;;6.50;2.73;;;16.60;58.00;;;;;;5015010;28;20448;-83
2022/01/17 10:09:17;;;;;;;11.33;3.03;;;16.60;57.90;;;;;;5016008;28;20500;-83
2022/01/17 10:12:04;;;;;;;15.43;3.60;;;16.60;58.00;;;;;;5013245;28;20453;-83
2022/01/17 10:14:35;;;;;;;7.67;2.80;;;16.70;57.90;;;;;;5015219;28;20430;-82
2022/01/17 10:17:05;;;;;;;7.40;3.17;;;16.70;57.90;;;;;;5016177;28;20433;-83
2022/01/17 10:19:35;;;;;;;14.80;3.50;;;16.70;58.00;;;;;;5015844;28;20469;-83
2022/01/17 10:22:09;;;;;;;9.33;3.30;;;16.70;57.90;;;;;;5014437;28;20437;-83
2022/01/17 10:24:46;;;;;;;11.33;3.37;;;16.80;57.80;;;;;;5015024;28;20421;-83
2022/01/17 10:27:39;;;;;;;11.77;3.50;;;16.90;58.00;;;;;;5014923;28;20469;-82
2022/01/17 10:30:43;;;;;;;8.53;2.90;;;16.90;57.70;;;;;;5012797;28;20473;-83
2022/01/17 10:35:59;;;;;;;12.40;3.23;;;17.00;57.60;;;;;;5015282;28;20455;-83
2022/01/17 10:38:28;;;;;;;12.07;2.90;;;17.00;57.60;;;;;;5015223;28;20433;-82
2022/01/17 10:40:58;;;;;;;10.40;3.10;;;17.10;57.50;;;;;;5013436;28;20486;-82
2022/01/17 10:43:28;;;;;;;12.87;3.40;;;17.20;57.50;;;;;;5014612;28;20457;-82
2022/01/17 10:45:57;;;;;;;14.43;3.50;;;17.20;57.50;;;;;;5016043;28;20442;-83
2022/01/17 10:48:29;;;;;;;13.87;3.43;;;17.30;57.40;;;;;;5011993;28;20473;-83
2022/01/17 10:50:59;;;;;;;16.20;4.00;;;17.30;56.90;;;;;;5013991;28;20496;-83
2022/01/17 10:53:26;;;;;;;11.53;3.30;;;17.40;57.20;;;;;;5015055;28;20464;-83
2022/01/17 10:55:55;;;;;;;14.53;3.93;;;17.50;57.20;;;;;;5013116;28;20481;-83
2022/01/17 10:58:25;;;;;;;15.70;3.80;;;17.60;57.00;;;;;;5011650;28;20429;-84
2022/01/17 11:00:55;;;;;;;12.13;3.33;;;17.70;56.60;;;;;;5013006;28;20450;-83
2022/01/17 11:03:27;;;;;;;16.17;4.50;;;17.70;56.80;;;;;;5012084;28;20469;-83
2022/01/17 11:05:55;;;;;;;11.10;3.30;;;17.70;56.60;;;;;;5013938;28;20417;-83
2022/01/17 11:08:26;;;;;;;12.40;3.13;;;17.70;56.60;;;;;;5012758;28;20469;-83
2022/01/17 11:10:55;;;;;;;17.13;3.60;;;17.80;56.60;;;;;;5015727;28;20457;-83
2022/01/17 11:13:24;;;;;;;17.80;3.53;;;17.70;56.40;;;;;;5011785;28;20442;-83
2022/01/17 11:15:54;;;;;;;14.10;3.73;;;17.70;56.60;;;;;;5007582;28;20438;-83
2022/01/17 11:18:24;;;;;;;14.73;3.70;;;17.60;56.60;;;;;;5003549;28;20438;-82
2022/01/17 11:20:53;;;;;;;18.67;3.50;;;17.60;56.50;;;;;;5000699;28;20492;-82
2022/01/17 11:23:21;;;;;;;13.73;3.80;;;17.60;56.80;;;;;;5001710;28;20464;-82
2022/01/17 11:25:54;;;;;;;19.97;4.57;;;17.60;56.90;;;;;;5002121;28;20453;-81
2022/01/17 11:28:23;;;;;;;16.30;3.80;;;17.60;56.90;;;;;;5006224;28;20535;-82
2022/01/17 11:30:52;;;;;;;15.50;3.90;;;17.60;57.00;;;;;;5005139;28;20489;-82
2022/01/17 11:33:20;;;;;;;13.93;3.43;;;17.60;57.00;;;;;;5006829;28;20441;-82
2022/01/17 11:35:51;;;;;;;16.53;4.00;;;17.60;57.00;;;;;;5001427;28;20553;-83
2022/01/17 11:38:22;;;;;;;20.70;4.67;;;17.60;57.10;;;;;;5001712;28;20499;-83
2022/01/17 11:40:52;;;;;;;20.43;3.97;;;17.60;57.20;;;;;;5011408;28;20495;-84
2022/01/17 11:43:22;;;;;;;12.50;3.40;;;17.70;57.30;;;;;;5008329;28;20480;-83
2022/01/17 11:45:50;;;;;;;15.70;3.90;;;17.70;57.40;;;;;;5003112;28;20461;-83
2022/01/17 11:48:21;;;;;;;9.10;3.67;;;17.80;57.40;;;;;;5012153;28;20460;-84
2022/01/17 11:50:50;;;;;;;14.73;4.00;;;17.80;57.40;;;;;;5014085;28;20457;-83
2022/01/17 11:53:56;;;;;;;13.87;3.63;;;17.80;57.30;;;;;;5014186;28;20445;-84
2022/01/17 11:56:41;;;;;;;12.50;3.80;;;17.90;57.30;;;;;;5011951;28;20487;-84
2022/01/17 11:59:35;;;;;;;15.53;4.10;;;17.90;57.20;;;;;;5010445;28;20468;-84
2022/01/17 12:02:30;;;;;;;19.17;4.67;;;17.90;57.20;;;;;;5012124;28;20433;-84
2022/01/17 12:05:43;;;;;;;15.67;3.60;;;17.90;57.40;;;;;;5000018;28;20437;-83
2022/01/17 12:08:16;;;;;;;16.73;3.80;;;17.90;57.30;;;;;;5011616;28;20469;-83
2022/01/17 12:10:47;;;;;;;8.80;3.50;;;17.90;57.30;;;;;;5011209;28;20540;-83
2022/01/17 12:13:35;;;;;;;18.20;3.50;;;18.00;57.60;;;;;;5012929;28;20438;-85
2022/01/17 12:16:10;;;;;;;12.03;3.40;;;18.10;57.60;;;;;;5013370;28;20429;-85
2022/01/17 12:18:40;;;;;;;14.17;3.93;;;18.20;57.50;;;;;;5012579;28;20433;-83
2022/01/17 12:21:28;;;;;;;8.00;3.20;;;18.30;57.50;;;;;;5014244;28;20487;-84
2022/01/17 12:24:25;;;;;;;12.77;3.90;;;18.50;57.10;;;;;;5005810;28;20460;-84
2022/01/17 12:27:08;;;;;;;14.40;3.90;;;18.50;57.00;;;;;;4982743;28;20462;-83
2022/01/17 12:29:39;;;;;;;12.80;3.50;;;18.50;56.70;;;;;;4987863;28;20489;-83
2022/01/17 12:32:08;;;;;;;11.30;3.00;;;18.40;56.90;;;;;;4997262;28;20488;-83
2022/01/17 12:34:42;;;;;;;12.40;3.27;;;18.30;57.00;;;;;;4997834;28;20485;-83
2022/01/17 12:37:30;;;;;;;11.90;3.10;;;18.30;57.20;;;;;;4995552;28;20490;-84
2022/01/17 12:40:13;;;;;;;10.33;3.43;;;18.30;57.30;;;;;;4988792;28;20481;-84
2022/01/17 12:42:51;;;;;;;13.70;3.20;;;18.30;57.30;;;;;;4992387;28;20547;-84
2022/01/17 12:45:22;;;;;;;10.80;3.00;;;18.20;57.30;;;;;;4983258;28;20478;-84
2022/01/17 12:47:50;;;;;;;13.67;3.20;;;18.20;57.40;;;;;;4989485;28;20517;-85
2022/01/17 12:50:19;;;;;;;7.23;3.07;;;18.20;57.40;;;;;;4991591;28;20478;-84
2022/01/17 12:52:47;;;;;;;10.07;3.37;;;18.20;57.50;;;;;;4990604;28;20543;-84
2022/01/17 12:55:15;;;;;;;9.80;3.20;;;18.20;57.70;;;;;;4996148;28;20633;-83
2022/01/17 12:57:43;;;;;;;10.47;3.00;;;18.20;57.70;;;;;;4995886;28;20535;-84
2022/01/17 13:00:17;;;;;;;10.07;2.90;;;18.20;57.70;;;;;;4979082;28;20564;-84
2022/01/17 13:02:47;;;;;;;10.20;3.00;;;18.10;57.90;;;;;;4985609;28;20560;-85
2022/01/17 13:05:16;;;;;;;9.80;2.53;;;18.10;57.90;;;;;;4984194;28;20504;-82
2022/01/17 13:07:44;;;;;;;13.30;3.20;;;18.20;58.10;;;;;;4982988;28;20522;-81
2022/01/17 13:10:12;;;;;;;5.87;2.43;;;18.10;58.00;;;;;;4986671;28;21047;-82
2022/01/17 13:12:42;;;;;;;9.13;2.57;;;18.10;58.00;;;;;;5001090;28;20472;-86